createdAt,value
2022-12-19T00:17:50.670Z,1
2022-12-19T00:23:59.956Z,1.1
2022-12-19T00:32:06.066Z,1.2
2022-12-19T00:34:10.765Z,1.2
2022-12-19T00:36:12.285Z,1.3
2022-12-19T00:38:13.778Z,1.2
2022-12-19T00:40:15.279Z,1.3
2022-12-19T00:42:16.791Z,1.3
2022-12-19T00:44:18.316Z,1.3
2022-12-19T00:46:19.982Z,1.2
2022-12-19T00:48:24.568Z,1.3
2022-12-19T00:53:29.995Z,1.2
2022-12-19T00:55:31.533Z,1.3
2022-12-19T00:57:33.036Z,1.2
2022-12-19T00:59:34.547Z,1.3
2022-12-19T01:01:39.491Z,1.3
2022-12-19T01:03:52.876Z,1.2
2022-12-19T01:05:42.355Z,1.3
2022-12-19T01:07:43.889Z,1.2
2022-12-19T01:09:45.390Z,1.3
2022-12-19T01:15:53.223Z,1.3
2022-12-19T01:17:54.720Z,1.3
2022-12-19T01:19:56.258Z,1.2
2022-12-19T01:23:59.316Z,1.3
2022-12-19T01:26:00.820Z,1.3
2022-12-19T01:30:07.105Z,1.4
2022-12-19T01:34:10.179Z,1.4
2022-12-19T01:36:11.683Z,1.4
2022-12-19T01:38:13.186Z,1.4
2022-12-19T01:44:21.022Z,1.5
2022-12-19T01:53:29.547Z,1.7
2022-12-19T01:55:31.093Z,1.7
2022-12-19T02:03:40.447Z,1.8
2022-12-19T02:11:49.838Z,1.9
2022-12-19T02:13:51.419Z,1.9
2022-12-19T02:15:52.916Z,1.9
2022-12-19T02:17:54.467Z,1.9
2022-12-19T02:19:56.043Z,1.9
2022-12-19T02:21:57.563Z,1.9
2022-12-19T02:23:59.123Z,1.9
2022-12-19T02:26:03.884Z,1.9
2022-12-19T02:28:05.439Z,2.1
2022-12-19T02:30:07.022Z,2.1
2022-12-19T02:32:08.643Z,2.1
2022-12-19T02:34:10.118Z,2.1
2022-12-19T02:36:11.656Z,2.1
2022-12-19T02:38:13.496Z,2.1
2022-12-19T02:42:19.594Z,2.2
2022-12-19T02:44:21.107Z,2.3
2022-12-19T02:45:28.907Z,2.3
2022-12-19T02:47:25.081Z,2.2
2022-12-19T02:49:30.908Z,2.4
2022-12-19T02:51:28.197Z,2.3
2022-12-19T02:53:32.987Z,2.4
2022-12-19T02:55:34.579Z,2.4
2022-12-19T02:57:36.138Z,2.5
2022-12-19T02:59:37.712Z,2.4
2022-12-19T03:01:39.355Z,2.4
2022-12-19T03:03:40.902Z,2.5
2022-12-19T03:05:42.373Z,2.4
2022-12-19T03:07:47.188Z,2.5
2022-12-19T03:09:48.779Z,2.4
2022-12-19T03:11:50.337Z,2.5
2022-12-19T03:13:51.904Z,2.5
2022-12-19T03:15:53.460Z,2.4
2022-12-19T03:17:55.049Z,2.6
2022-12-19T03:19:56.633Z,2.5
2022-12-19T03:22:01.435Z,2.5
2022-12-19T03:24:03.007Z,2.7
2022-12-19T03:26:04.549Z,2.4
2022-12-19T03:28:06.144Z,2.6
2022-12-19T03:30:07.727Z,2.7
2022-12-19T03:32:09.268Z,2.7
2022-12-19T03:34:10.875Z,2.8
2022-12-19T03:36:15.657Z,2.8
2022-12-19T03:40:18.826Z,2.8
2022-12-19T03:42:47.376Z,2.7
2022-12-19T03:46:50.527Z,2.9
2022-12-19T03:48:55.389Z,3
2022-12-19T03:50:56.910Z,2.9
2022-12-19T03:52:58.512Z,2.9
2022-12-19T03:55:00.133Z,3
2022-12-19T03:57:01.693Z,3
2022-12-19T03:59:03.271Z,3.1
2022-12-19T04:01:04.941Z,3
2022-12-19T04:05:11.262Z,3
2022-12-19T04:07:12.846Z,3.1
2022-12-19T04:09:19.211Z,3.1
2022-12-19T04:11:16.005Z,3.2
2022-12-19T04:13:17.601Z,3.2
2022-12-19T04:15:19.209Z,3.3
2022-12-19T04:17:24.028Z,3.2
2022-12-19T04:19:25.598Z,3.2
2022-12-19T04:21:27.200Z,3.2
2022-12-19T04:23:28.813Z,3.4
2022-12-19T04:25:30.384Z,3.3
2022-12-19T04:27:31.976Z,3.3
2022-12-19T04:29:33.554Z,3.3
2022-12-19T04:31:38.441Z,3.3
2022-12-19T04:33:39.978Z,3.3
2022-12-19T04:35:41.601Z,3.3
2022-12-19T04:36:43.991Z,3.3
2022-12-19T04:38:45.591Z,3.4
2022-12-19T04:44:53.644Z,3.4
2022-12-19T04:46:55.233Z,3.5
2022-12-19T04:48:56.802Z,3.4
2022-12-19T04:50:58.379Z,3.6
2022-12-19T04:52:59.983Z,3.5
2022-12-19T04:55:01.660Z,3.6
2022-12-19T04:57:03.179Z,3.7
2022-12-19T04:59:08.032Z,3.8
2022-12-19T05:01:09.765Z,3.9
2022-12-19T05:03:11.284Z,3.9
2022-12-19T05:05:12.860Z,3.9
2022-12-19T05:07:14.486Z,3.7
2022-12-19T05:09:16.267Z,3.8
2022-12-19T05:13:22.516Z,3.9
2022-12-19T05:15:24.111Z,3.9
2022-12-19T05:17:25.714Z,4
2022-12-19T05:19:27.351Z,4
2022-12-19T05:21:28.952Z,4.1
2022-12-19T05:23:30.576Z,4.2
2022-12-19T05:25:32.185Z,4.4
2022-12-19T05:27:37.013Z,4.3
2022-12-19T05:29:38.655Z,4.3
2022-12-19T05:31:40.343Z,4.3
2022-12-19T05:32:42.712Z,4.5
2022-12-19T05:34:44.316Z,4.6
2022-12-19T05:36:45.937Z,4.5
2022-12-19T05:38:47.571Z,4.7
2022-12-19T05:40:52.444Z,4.9
2022-12-19T05:51:00.578Z,4.9
2022-12-19T05:53:02.250Z,4.9
2022-12-19T05:59:10.365Z,5
2022-12-19T06:01:12.022Z,5
2022-12-19T06:03:13.764Z,5
2022-12-19T06:05:15.284Z,5.1
2022-12-19T06:07:20.840Z,5
2022-12-19T06:09:21.830Z,5
2022-12-19T06:17:29.924Z,5.2
2022-12-19T06:19:31.565Z,5.2
2022-12-19T06:21:33.222Z,5.3
2022-12-19T06:23:38.118Z,5.3
2022-12-19T06:27:41.398Z,5.4
2022-12-19T06:28:43.861Z,5.2
2022-12-19T06:30:45.529Z,5.3
2022-12-19T06:32:47.181Z,5.3
2022-12-19T06:40:57.033Z,5.4
2022-12-19T06:45:00.334Z,5.4
2022-12-19T06:47:02.003Z,5.6
2022-12-19T06:49:03.676Z,5.5
2022-12-19T06:51:08.571Z,5.6
2022-12-19T06:53:10.203Z,5.6
2022-12-19T06:55:11.891Z,5.6
2022-12-19T06:57:13.558Z,5.7
2022-12-19T06:59:15.223Z,5.5
2022-12-19T07:01:16.990Z,5.8
2022-12-19T07:03:18.523Z,5.7
2022-12-19T07:05:23.445Z,5.9
2022-12-19T07:07:25.128Z,5.8
2022-12-19T07:09:26.799Z,5.9
2022-12-19T07:11:28.446Z,5.9
2022-12-19T07:13:30.134Z,6.1
2022-12-19T07:15:31.783Z,6.1
2022-12-19T07:17:33.463Z,6.1
2022-12-19T07:19:38.359Z,6.2
2022-12-19T07:21:40.061Z,6.2
2022-12-19T07:23:41.733Z,6.2
2022-12-19T07:26:10.319Z,6.3
2022-12-19T07:28:12.035Z,6.5
2022-12-19T07:30:13.690Z,6.4
2022-12-19T07:32:18.577Z,6.3
2022-12-19T07:34:20.274Z,6.5
2022-12-19T07:36:21.961Z,6.5
2022-12-19T07:38:23.647Z,6.6
2022-12-19T07:40:25.323Z,6.6
2022-12-19T07:42:30.877Z,6.5
2022-12-19T07:44:28.712Z,6.8
2022-12-19T07:46:33.644Z,6.8
2022-12-19T07:48:35.348Z,7
2022-12-19T07:50:37.024Z,7.1
2022-12-19T07:52:38.730Z,7
2022-12-19T07:54:40.422Z,7.2
2022-12-19T07:56:42.174Z,7.1
2022-12-19T07:58:43.816Z,7.3
2022-12-19T08:00:48.802Z,7.4
2022-12-19T08:02:50.739Z,7.4
2022-12-19T08:04:52.168Z,7.4
2022-12-19T08:06:53.832Z,7.5
2022-12-19T08:19:07.266Z,7.5
2022-12-19T08:20:09.753Z,7.6
2022-12-19T08:22:11.462Z,7.6
2022-12-19T08:24:13.167Z,7.6
2022-12-19T08:26:14.903Z,7.7
2022-12-19T08:28:19.801Z,7.7
2022-12-19T08:30:21.518Z,7.6
2022-12-19T08:32:23.220Z,7.7
2022-12-19T08:34:24.925Z,7.7
2022-12-19T08:36:26.641Z,7.8
2022-12-19T08:38:28.351Z,7.8
2022-12-19T08:40:30.219Z,7.9
2022-12-19T08:46:38.539Z,7.8
2022-12-19T08:48:40.169Z,7.9
2022-12-19T08:50:41.879Z,7.9
2022-12-19T08:52:43.608Z,8
2022-12-19T08:54:45.337Z,8
2022-12-19T08:56:50.278Z,8
2022-12-19T08:58:51.970Z,7.9
2022-12-19T09:00:57.591Z,8
2022-12-19T09:02:55.543Z,8
2022-12-19T09:05:59.560Z,8
2022-12-19T09:06:58.835Z,8
2022-12-19T09:09:00.793Z,8.1
2022-12-19T09:11:05.512Z,8.1
2022-12-19T09:13:07.229Z,8.2
2022-12-19T09:15:08.961Z,8.1
2022-12-19T09:18:13.154Z,8.1
2022-12-19T09:24:21.539Z,8
2022-12-19T09:26:23.302Z,8.1
2022-12-19T09:32:28.452Z,8.2
2022-12-19T09:34:37.887Z,8.1
2022-12-19T09:36:31.912Z,8.1
2022-12-19T09:38:38.003Z,8.1
2022-12-19T09:40:38.616Z,8.2
2022-12-19T09:42:41.288Z,8.1
2022-12-19T09:44:42.048Z,8.1
2022-12-19T09:46:43.868Z,8.1
2022-12-19T09:48:49.379Z,8.1
2022-12-19T09:50:47.243Z,8.1
2022-12-19T09:52:52.222Z,8
2022-12-19T09:54:53.936Z,8.2
2022-12-19T09:56:55.642Z,8.1
2022-12-19T09:58:57.378Z,8.1
2022-12-19T10:01:00.130Z,8.2
2022-12-19T10:03:00.961Z,8
2022-12-19T10:05:25.912Z,8.3
2022-12-19T10:07:30.570Z,8.1
2022-12-19T10:10:01.930Z,8.2
2022-12-19T10:12:42.161Z,8.3
2022-12-19T10:14:15.165Z,8.2
2022-12-19T10:16:16.905Z,8.3
2022-12-19T10:20:23.569Z,8.4
2022-12-19T10:22:25.299Z,8.3
2022-12-19T10:24:31.716Z,8.3
2022-12-19T10:26:30.286Z,8.3
2022-12-19T10:28:30.493Z,8.3
2022-12-19T10:30:32.400Z,8.3
2022-12-19T10:37:04.567Z,8.4
2022-12-19T10:38:46.272Z,8.4
2022-12-19T10:40:44.180Z,8.4
2022-12-19T10:46:49.450Z,8.4
2022-12-19T10:48:54.272Z,8.4
2022-12-19T10:50:56.007Z,8.4
2022-12-19T10:57:01.255Z,8.5
2022-12-19T10:59:03.350Z,8.4
2022-12-19T11:05:11.421Z,8.7
2022-12-19T11:07:13.115Z,8.6
2022-12-19T11:09:41.870Z,8.7
2022-12-19T11:14:41.528Z,8.8
2022-12-19T11:18:13.809Z,8.7
2022-12-19T11:24:08.288Z,8.8
2022-12-19T11:26:27.550Z,8.9
2022-12-19T11:29:31.605Z,8.8
2022-12-19T11:29:36.672Z,8.8
2022-12-19T11:29:43.947Z,8.8
2022-12-19T11:30:35.206Z,8.8
2022-12-19T11:30:39.204Z,8.9
2022-12-19T11:31:51.041Z,8.9
2022-12-19T11:32:39.521Z,8.9
2022-12-19T11:34:09.124Z,8.9
2022-12-19T11:36:10.869Z,8.9
2022-12-19T11:38:12.609Z,8.9
2022-12-19T11:40:14.459Z,8.9
2022-12-19T11:42:16.117Z,8.9
2022-12-19T11:44:21.095Z,8.9
2022-12-19T11:46:22.844Z,8.8
2022-12-19T11:48:24.604Z,8.9
2022-12-19T11:50:26.350Z,8.9
2022-12-19T11:54:29.819Z,8.9
2022-12-19T11:56:31.590Z,8.9
2022-12-19T11:58:36.557Z,8.9
2022-12-19T12:00:38.308Z,8.9
2022-12-19T12:02:40.051Z,9
2022-12-19T12:04:00.330Z,8.9
2022-12-19T12:05:45.797Z,8.9
2022-12-19T12:08:54.298Z,9
2022-12-19T12:13:59.475Z,8.9
2022-12-19T12:21:09.129Z,9
2022-12-19T12:26:51.655Z,9
2022-12-19T12:27:19.999Z,9
2022-12-19T12:27:44.715Z,9
2022-12-19T12:31:28.907Z,9.2
2022-12-19T12:31:39.389Z,9.1
2022-12-19T12:31:45.124Z,9.1
2022-12-19T12:31:49.682Z,9.1
2022-12-19T12:31:50.786Z,9.1
2022-12-19T12:32:05.262Z,9.1
2022-12-19T12:35:32.685Z,9.2
2022-12-19T12:38:24.362Z,9.2
2022-12-19T12:40:25.260Z,9.2
2022-12-19T12:44:32.588Z,9.4
2022-12-19T12:46:30.513Z,9.3
2022-12-19T12:48:32.277Z,9.4
2022-12-19T12:50:34.042Z,9.4
2022-12-19T12:52:35.786Z,9.4
2022-12-19T12:54:40.766Z,9.4
2022-12-19T12:56:42.532Z,9.4
2022-12-19T12:59:46.753Z,9.4
2022-12-19T13:01:48.643Z,9.3
2022-12-19T13:03:50.285Z,9.5
2022-12-19T13:05:52.086Z,9.4
2022-12-19T13:07:57.039Z,9.5
2022-12-19T13:12:00.599Z,9.5
2022-12-19T13:14:02.344Z,9.5
2022-12-19T13:18:05.648Z,9.5
2022-12-19T13:20:07.393Z,9.6
2022-12-19T13:22:12.400Z,9.6
2022-12-19T13:26:19.679Z,9.6
2022-12-19T13:28:17.684Z,9.6
2022-12-19T13:30:19.454Z,9.6
2022-12-19T13:32:21.200Z,9.7
2022-12-19T13:34:22.978Z,9.7
2022-12-19T13:39:47.603Z,9.7
2022-12-19T13:40:33.118Z,9.7
2022-12-19T13:44:35.042Z,9.8
2022-12-19T13:46:36.828Z,9.7
2022-12-19T13:48:38.602Z,9.7
2022-12-19T13:50:43.605Z,9.6
2022-12-19T13:52:45.388Z,9.6
2022-12-19T13:54:47.122Z,9.7
2022-12-19T13:55:49.634Z,9.8
2022-12-19T13:57:51.373Z,9.7
2022-12-19T14:01:55.006Z,9.7
2022-12-19T14:04:07.650Z,9.7
2022-12-19T14:06:16.177Z,9.8
2022-12-19T14:08:03.454Z,9.7
2022-12-19T14:11:32.316Z,9.7
2022-12-19T14:13:42.405Z,9.7
2022-12-19T14:14:16.410Z,9.6
2022-12-19T14:16:10.571Z,9.6
2022-12-19T14:18:42.220Z,9.8
2022-12-19T14:22:25.327Z,9.8
2022-12-19T14:24:20.894Z,9.7
2022-12-19T14:28:18.860Z,9.6
2022-12-19T14:28:30.306Z,9.7
2022-12-19T14:30:32.049Z,9.7
2022-12-19T14:33:45.853Z,9.6
2022-12-19T14:35:05.062Z,9.6
2022-12-19T14:36:34.678Z,9.7
2022-12-19T14:39:23.728Z,9.5
2022-12-19T14:41:08.733Z,9.6
2022-12-19T14:43:57.213Z,9.4
2022-12-19T14:52:25.253Z,9.6
2022-12-19T14:53:52.730Z,9.4
2022-12-19T14:54:02.258Z,9.5
2022-12-19T14:54:34.715Z,9.4
2022-12-19T14:54:50.511Z,9.4
2022-12-19T14:56:16.906Z,9.5
2022-12-19T14:57:25.423Z,9.5
2022-12-19T14:59:27.450Z,9.5
2022-12-19T15:01:29.377Z,9.5
2022-12-19T15:03:31.133Z,9.6
2022-12-19T15:05:32.712Z,9.7
2022-12-19T15:07:34.432Z,9.6
2022-12-19T15:11:06.384Z,9.6
2022-12-19T15:11:54.001Z,9.7
2022-12-19T15:14:53.231Z,9.8
2022-12-19T15:15:44.754Z,9.5
2022-12-19T15:17:46.444Z,9.9
2022-12-19T15:19:48.213Z,9.7
2022-12-19T15:21:49.950Z,9.8
2022-12-19T15:23:51.696Z,9.8
2022-12-19T15:26:05.026Z,9.8
2022-12-19T15:27:58.460Z,9.8
2022-12-19T15:30:00.327Z,9.8
2022-12-19T15:32:01.954Z,9.9
2022-12-19T15:34:34.291Z,9.9
2022-12-19T15:36:05.506Z,9.8
2022-12-19T15:42:13.995Z,10.1
2022-12-19T15:44:15.771Z,10.2
2022-12-19T15:46:17.547Z,10.1
2022-12-19T15:47:20.170Z,10.2
2022-12-19T15:49:21.795Z,10.2
2022-12-19T15:51:23.572Z,10.2
2022-12-19T15:53:36.271Z,10.2
2022-12-19T15:55:30.327Z,10.3
2022-12-19T15:57:32.094Z,10.4
2022-12-19T15:59:37.380Z,10.3
2022-12-19T16:01:35.698Z,10.2
2022-12-19T16:03:37.671Z,10.3
2022-12-19T16:05:39.285Z,10.3
2022-12-19T16:07:40.899Z,10.2
2022-12-19T16:09:45.923Z,10.3
2022-12-19T16:11:47.706Z,10.2
2022-12-19T16:13:49.471Z,10.3
2022-12-19T16:15:51.286Z,10.2
2022-12-19T16:17:53.024Z,10.1
2022-12-19T16:19:54.769Z,10.2
2022-12-19T16:21:56.547Z,10.2
2022-12-19T16:24:01.552Z,10
2022-12-19T16:26:03.327Z,10.1
2022-12-19T16:28:05.102Z,10.1
2022-12-19T16:30:06.881Z,10.3
2022-12-19T16:32:08.660Z,10.2
2022-12-19T16:34:10.446Z,10.2
2022-12-19T16:36:12.171Z,10.2
2022-12-19T16:38:17.221Z,10.3
2022-12-19T16:40:18.973Z,10.4
2022-12-19T16:42:20.761Z,10.3
2022-12-19T16:43:23.262Z,10.1
2022-12-19T16:45:25.023Z,10.2
2022-12-19T16:47:26.859Z,10.2
2022-12-19T16:53:35.404Z,10.2
2022-12-19T16:55:37.116Z,10.2
2022-12-19T16:57:38.876Z,10.2
2022-12-19T16:59:40.670Z,10.2
2022-12-19T17:01:42.754Z,10.1
2022-12-19T17:07:50.965Z,10.3
2022-12-19T17:13:56.276Z,10.4
2022-12-19T17:15:58.130Z,10.2
2022-12-19T17:17:59.811Z,10.3
2022-12-19T17:20:04.820Z,10.4
2022-12-19T17:22:06.558Z,10.4
2022-12-19T17:24:08.341Z,10.5
2022-12-19T17:26:15.767Z,10.4
2022-12-19T17:28:11.873Z,10.5
2022-12-19T17:30:13.663Z,10.5
2022-12-19T17:32:21.528Z,10.6
2022-12-19T17:34:20.405Z,10.5
2022-12-19T17:36:26.089Z,10.4
2022-12-19T17:38:23.969Z,10.3
2022-12-19T17:39:26.452Z,10.4
2022-12-19T17:41:28.224Z,10.4
2022-12-19T17:43:29.987Z,10.5
2022-12-19T17:45:31.794Z,10.6
2022-12-19T17:47:36.782Z,10.6
2022-12-19T17:49:38.534Z,10.5
2022-12-19T17:51:40.311Z,10.5
2022-12-19T17:53:42.053Z,10.6
2022-12-19T18:01:54.081Z,10.6
2022-12-19T18:03:55.632Z,10.6
2022-12-19T18:05:57.430Z,10.5
2022-12-19T18:07:59.235Z,10.1
2022-12-19T18:10:00.961Z,9.9
2022-12-19T18:12:02.736Z,9.9
2022-12-19T18:14:04.497Z,9.6
2022-12-19T18:16:09.599Z,9.4
2022-12-19T18:18:11.292Z,9.4
2022-12-19T18:20:13.056Z,9.2
2022-12-19T18:22:14.847Z,9.1
2022-12-19T18:28:20.154Z,9
2022-12-19T18:30:25.196Z,9.1
2022-12-19T18:32:26.894Z,9
2022-12-19T18:34:28.653Z,9
2022-12-19T18:36:57.286Z,9.2
2022-12-19T18:38:59.042Z,9.2
2022-12-19T18:41:00.793Z,9
2022-12-19T18:43:05.794Z,9.2
2022-12-19T18:45:07.556Z,9.2
2022-12-19T18:47:09.343Z,9.4
2022-12-19T18:49:11.069Z,9.3
2022-12-19T18:51:12.799Z,9.3
2022-12-19T18:53:14.567Z,9.1
2022-12-19T18:55:16.349Z,9
2022-12-19T18:57:21.346Z,9.1
2022-12-19T18:59:23.051Z,9
2022-12-19T19:01:24.899Z,9.1
2022-12-19T19:03:26.792Z,9.1
2022-12-19T19:05:28.332Z,9.1
2022-12-19T19:13:38.551Z,9
2022-12-19T19:19:43.783Z,9.1
2022-12-19T19:21:45.525Z,9.2
2022-12-19T19:23:47.274Z,9.4
2022-12-19T19:27:54.015Z,9.7
2022-12-19T19:29:55.753Z,9.9
2022-12-19T19:30:58.287Z,10
2022-12-19T19:33:00.025Z,10.2
2022-12-19T19:37:03.493Z,10.6
2022-12-19T19:39:08.499Z,10.6
2022-12-19T19:41:10.258Z,10.7
2022-12-19T19:45:13.764Z,10.8
2022-12-19T19:47:15.520Z,10.7
2022-12-19T19:49:17.264Z,10.7
2022-12-19T19:51:19.040Z,10.8
2022-12-19T19:53:24.008Z,10.7
2022-12-19T19:57:27.529Z,10.9
2022-12-19T19:59:29.312Z,10.7
2022-12-19T20:01:31.208Z,10.9
2022-12-19T20:03:33.005Z,10.8
2022-12-19T20:05:34.603Z,10.6
2022-12-19T20:07:39.656Z,10.8
2022-12-19T20:09:41.402Z,10.8
2022-12-19T20:11:43.145Z,10.8
2022-12-19T20:13:44.919Z,10.8
2022-12-19T20:15:49.871Z,10.7
2022-12-19T20:17:48.440Z,10.7
2022-12-19T20:19:50.205Z,10.6
2022-12-19T20:21:55.241Z,10.7
2022-12-19T20:23:56.978Z,10.6
2022-12-19T20:25:58.776Z,10.7
2022-12-19T20:27:01.263Z,10.8
2022-12-19T20:31:04.796Z,10.7
2022-12-19T20:33:06.530Z,10.8
2022-12-19T20:35:14.862Z,10.7
2022-12-19T20:37:13.311Z,10.9
2022-12-19T20:39:15.081Z,10.9
2022-12-19T20:41:16.827Z,10.9
2022-12-19T20:43:18.608Z,10.8
2022-12-19T20:45:20.383Z,10.8
2022-12-19T20:49:27.151Z,10.8
2022-12-19T20:51:28.907Z,10.9
2022-12-19T20:53:30.688Z,11
2022-12-19T20:55:32.467Z,11.1
2022-12-19T20:57:34.236Z,10.9
2022-12-19T20:59:36.020Z,11.1
2022-12-19T21:01:37.974Z,11.2
2022-12-19T21:03:43.100Z,11.2
2022-12-19T21:05:44.606Z,11.1
2022-12-19T21:07:46.394Z,11
2022-12-19T21:09:48.145Z,10.8
2022-12-19T21:11:49.928Z,11
2022-12-19T21:15:53.514Z,10.9
2022-12-19T21:17:58.506Z,10.9
2022-12-19T21:23:04.585Z,10.9
2022-12-19T21:25:06.362Z,10.8
2022-12-19T21:27:08.141Z,10.8
2022-12-19T21:29:09.909Z,10.8
2022-12-19T21:31:14.955Z,10.7
2022-12-19T21:33:16.697Z,10.9
2022-12-19T21:35:18.443Z,10.9
2022-12-19T21:37:20.238Z,10.7
2022-12-19T21:39:22.008Z,10.8
2022-12-19T21:41:23.798Z,10.9
2022-12-19T21:49:34.114Z,10.9
2022-12-19T21:51:35.897Z,10.9
2022-12-19T21:53:37.672Z,10.9
2022-12-19T21:57:41.223Z,10.7
2022-12-19T21:59:46.185Z,10.9
2022-12-19T22:01:48.111Z,11.1
2022-12-19T22:03:49.927Z,11.1
2022-12-19T22:05:51.503Z,11.2
2022-12-19T22:07:53.276Z,11.3
2022-12-19T22:09:55.062Z,11.3
2022-12-19T22:11:56.825Z,11.2
2022-12-19T22:18:05.421Z,11.3
2022-12-19T22:20:34.029Z,11.4
2022-12-19T22:22:35.814Z,11.5
2022-12-19T22:24:37.582Z,11.5
2022-12-19T22:26:42.633Z,11.4
2022-12-19T22:28:44.407Z,11.4
2022-12-19T22:30:46.175Z,11.5
2022-12-19T22:32:47.979Z,11.5
2022-12-19T22:34:49.794Z,11.5
2022-12-19T22:36:51.558Z,11.5
2022-12-19T22:38:53.347Z,11.5
2022-12-19T22:40:58.384Z,11.5
2022-12-19T22:45:01.993Z,11.5
2022-12-19T22:47:03.754Z,11.4
2022-12-19T22:49:05.568Z,11.5
2022-12-19T22:51:07.337Z,11.4
2022-12-19T22:53:12.739Z,11.4
2022-12-19T22:55:14.165Z,11.4
2022-12-19T22:57:15.986Z,11.5
2022-12-19T22:59:17.765Z,11.5
2022-12-19T23:01:19.581Z,11.4
2022-12-19T23:05:23.114Z,11.5
2022-12-19T23:07:24.925Z,11.4
2022-12-19T23:09:29.922Z,11.4
2022-12-19T23:11:31.702Z,11.4
2022-12-19T23:13:33.492Z,11.5
2022-12-19T23:14:36.021Z,11.5
2022-12-19T23:22:46.413Z,11.3
2022-12-19T23:24:48.192Z,11.3
2022-12-19T23:30:53.558Z,11.3
2022-12-19T23:32:55.337Z,11.4
2022-12-19T23:34:57.105Z,11.3
2022-12-19T23:39:03.922Z,11.3
2022-12-19T23:41:05.737Z,11.1
2022-12-19T23:43:07.487Z,11.1
2022-12-19T23:47:12.606Z,11.2
2022-12-19T23:49:14.368Z,11.1
2022-12-19T23:53:21.175Z,11
2022-12-19T23:55:22.934Z,11
2022-12-19T23:57:24.727Z,11.3
2022-12-19T23:59:26.498Z,11.3
